EKBI/BLL METAR and TAF weather

Enter ICAO airport designator
Station Type Date Time Source
EKBI METAR 2019/04/26 03:50 UTC NOAA

EKBI 260350Z AUTO 11008KT 9999 BKN090/// 13/07 Q1009


Station Type Date Time Source
EKBI Decoded METAR 2019/04/26 03:50 UTC NOAA

Billund Lufthavn, Denmark (EKBI) 55-44N 009-10E 79M
Apr 25, 2019 - 11:50 PM EDT / 2019.04.26 0350 UTC
Wind: from the ESE (110 degrees) at 9 MPH (8 KT):0
Visibility: greater than 7 mile(s):0
Sky conditions: mostly cloudy
Temperature: 55 F (13 C)
Dew Point: 44 F (7 C)
Relative Humidity: 66%
Pressure (altimeter): 29.80 in. Hg (1009 hPa)
ob: EKBI 260350Z AUTO 11008KT 9999 BKN090/// 13/07 Q1009
cycle: 4

Station Type Date Time Source
EKBI TAF 2019/04/25 18:16 UTC NOAA

TAF EKBI 251706Z 2518/2618 10010KT 9999 FEW030
TEMPO 2609/2618 4000 SHRA BKN008 SCT025CB
BECMG 2612/2614 30010KT

Example: see airport list